sensor_id;sensor_type;location;lat;lon;timestamp;pressure;altitude;pressure_sealevel;temperature;humidity
78373;BME280;67656;52.074;4.758;2023-03-14T00:00:10;98842.69;;;9.96;100.00
78373;BME280;67656;52.074;4.758;2023-03-14T00:05:11;98849.66;;;9.97;100.00
78373;BME280;67656;52.074;4.758;2023-03-14T00:10:13;98846.19;;;9.97;100.00
78373;BME280;67656;52.074;4.758;2023-03-14T00:15:13;98845.94;;;10.02;100.00
78373;BME280;67656;52.074;4.758;2023-03-14T00:20:14;98854.09;;;9.97;100.00
78373;BME280;67656;52.074;4.758;2023-03-14T00:25:14;98840.34;;;9.92;100.00
78373;BME280;67656;52.074;4.758;2023-03-14T00:30:14;98841.03;;;9.79;100.00
78373;BME280;67656;52.074;4.758;2023-03-14T00:35:15;98853.44;;;9.77;100.00
78373;BME280;67656;52.074;4.758;2023-03-14T00:40:16;98853.88;;;9.53;100.00
78373;BME280;67656;52.074;4.758;2023-03-14T00:45:16;98863.25;;;9.43;100.00
78373;BME280;67656;52.074;4.758;2023-03-14T00:50:16;98859.25;;;9.36;100.00
78373;BME280;67656;52.074;4.758;2023-03-14T00:55:17;98868.34;;;9.30;100.00
78373;BME280;67656;52.074;4.758;2023-03-14T01:00:17;98879.47;;;9.35;100.00
78373;BME280;67656;52.074;4.758;2023-03-14T01:05:18;98880.63;;;9.30;100.00
78373;BME280;67656;52.074;4.758;2023-03-14T01:10:18;98875.72;;;9.24;100.00
78373;BME280;67656;52.074;4.758;2023-03-14T01:15:18;98864.34;;;9.23;100.00
78373;BME280;67656;52.074;4.758;2023-03-14T01:20:20;98853.13;;;9.19;100.00
78373;BME280;67656;52.074;4.758;2023-03-14T01:25:21;98870.63;;;9.20;100.00
78373;BME280;67656;52.074;4.758;2023-03-14T01:30:22;98867.22;;;9.18;100.00
78373;BME280;67656;52.074;4.758;2023-03-14T01:35:22;98866.38;;;9.18;100.00
78373;BME280;67656;52.074;4.758;2023-03-14T01:40:23;98863.81;;;9.16;100.00
78373;BME280;67656;52.074;4.758;2023-03-14T01:46:01;98853.53;;;9.12;100.00
78373;BME280;67656;52.074;4.758;2023-03-14T01:51:27;98851.25;;;9.05;100.00
78373;BME280;67656;52.074;4.758;2023-03-14T01:56:30;98843.94;;;9.11;100.00
78373;BME280;67656;52.074;4.758;2023-03-14T02:01:31;98842.94;;;9.13;100.00
78373;BME280;67656;52.074;4.758;2023-03-14T02:06:40;98830.72;;;9.12;100.00
78373;BME280;67656;52.074;4.758;2023-03-14T02:11:43;98823.56;;;9.14;100.00
78373;BME280;67656;52.074;4.758;2023-03-14T02:17:04;98825.09;;;9.18;100.00
78373;BME280;67656;52.074;4.758;2023-03-14T02:22:24;98814.69;;;9.17;100.00
78373;BME280;67656;52.074;4.758;2023-03-14T02:27:29;98809.47;;;9.15;100.00
78373;BME280;67656;52.074;4.758;2023-03-14T02:32:32;98812.72;;;9.04;100.00
78373;BME280;67656;52.074;4.758;2023-03-14T02:37:38;98809.56;;;8.98;100.00
78373;BME280;67656;52.074;4.758;2023-03-14T02:42:40;98820.16;;;8.96;100.00
78373;BME280;67656;52.074;4.758;2023-03-14T02:47:49;98807.41;;;8.88;100.00
78373;BME280;67656;52.074;4.758;2023-03-14T02:52:54;98819.81;;;8.86;100.00
78373;BME280;67656;52.074;4.758;2023-03-14T02:57:54;98808.25;;;8.73;100.00
78373;BME280;67656;52.074;4.758;2023-03-14T03:02:54;98812.94;;;8.50;100.00
78373;BME280;67656;52.074;4.758;2023-03-14T03:07:55;98800.31;;;8.39;100.00
78373;BME280;67656;52.074;4.758;2023-03-14T03:12:55;98807.13;;;8.43;100.00
78373;BME280;67656;52.074;4.758;2023-03-14T03:17:59;98800.78;;;8.48;100.00
78373;BME280;67656;52.074;4.758;2023-03-14T03:23:00;98798.69;;;8.54;100.00
78373;BME280;67656;52.074;4.758;2023-03-14T03:28:00;98783.38;;;8.63;100.00
78373;BME280;67656;52.074;4.758;2023-03-14T03:33:01;98782.44;;;8.64;100.00
78373;BME280;67656;52.074;4.758;2023-03-14T03:38:02;98784.50;;;8.74;100.00
78373;BME280;67656;52.074;4.758;2023-03-14T03:43:03;98780.09;;;8.75;100.00
78373;BME280;67656;52.074;4.758;2023-03-14T03:48:04;98778.66;;;8.85;100.00
78373;BME280;67656;52.074;4.758;2023-03-14T03:53:05;98781.59;;;8.79;100.00
78373;BME280;67656;52.074;4.758;2023-03-14T03:58:05;98791.81;;;8.85;100.00
78373;BME280;67656;52.074;4.758;2023-03-14T04:03:07;98786.38;;;8.88;100.00
78373;BME280;67656;52.074;4.758;2023-03-14T04:08:08;98790.13;;;8.84;100.00
78373;BME280;67656;52.074;4.758;2023-03-14T04:13:08;98784.91;;;8.83;100.00
78373;BME280;67656;52.074;4.758;2023-03-14T04:18:10;98790.69;;;8.89;100.00
78373;BME280;67656;52.074;4.758;2023-03-14T04:23:11;98783.06;;;8.85;100.00
78373;BME280;67656;52.074;4.758;2023-03-14T04:28:12;98794.13;;;8.58;100.00
78373;BME280;67656;52.074;4.758;2023-03-14T04:33:12;98789.28;;;8.33;100.00
78373;BME280;67656;52.074;4.758;2023-03-14T04:38:18;98790.69;;;8.22;100.00
78373;BME280;67656;52.074;4.758;2023-03-14T04:43:20;98779.63;;;8.15;100.00
78373;BME280;67656;52.074;4.758;2023-03-14T04:48:28;98779.88;;;8.11;100.00
78373;BME280;67656;52.074;4.758;2023-03-14T04:53:29;98782.94;;;8.02;100.00
78373;BME280;67656;52.074;4.758;2023-03-14T04:58:31;98791.00;;;7.98;100.00
78373;BME280;67656;52.074;4.758;2023-03-14T05:03:34;98782.34;;;7.96;100.00
78373;BME280;67656;52.074;4.758;2023-03-14T05:08:46;98771.22;;;7.91;100.00
78373;BME280;67656;52.074;4.758;2023-03-14T05:13:55;98770.44;;;7.89;100.00
78373;BME280;67656;52.074;4.758;2023-03-14T05:19:08;98769.75;;;7.86;100.00
78373;BME280;67656;52.074;4.758;2023-03-14T05:24:30;98780.19;;;7.87;100.00
78373;BME280;67656;52.074;4.758;2023-03-14T05:29:47;98759.19;;;7.87;100.00
78373;BME280;67656;52.074;4.758;2023-03-14T05:35:11;98761.03;;;7.85;100.00
78373;BME280;67656;52.074;4.758;2023-03-14T05:40:20;98784.50;;;7.88;100.00
78373;BME280;67656;52.074;4.758;2023-03-14T05:45:43;98827.47;;;7.87;100.00
78373;BME280;67656;52.074;4.758;2023-03-14T05:51:02;98844.22;;;7.48;100.00
78373;BME280;67656;52.074;4.758;2023-03-14T05:56:20;98869.59;;;7.09;100.00
78373;BME280;67656;52.074;4.758;2023-03-14T06:01:50;98875.50;;;6.74;100.00
78373;BME280;67656;52.074;4.758;2023-03-14T06:06:55;98878.28;;;6.51;100.00
78373;BME280;67656;52.074;4.758;2023-03-14T06:11:55;98902.94;;;6.47;100.00
78373;BME280;67656;52.074;4.758;2023-03-14T06:16:56;98918.78;;;6.43;100.00
78373;BME280;67656;52.074;4.758;2023-03-14T06:22:02;98924.41;;;6.34;100.00
78373;BME280;67656;52.074;4.758;2023-03-14T06:27:04;98938.53;;;6.30;100.00
78373;BME280;67656;52.074;4.758;2023-03-14T06:32:05;98955.09;;;6.30;100.00
78373;BME280;67656;52.074;4.758;2023-03-14T06:37:05;98977.00;;;6.29;100.00
78373;BME280;67656;52.074;4.758;2023-03-14T06:42:06;98980.16;;;6.15;100.00
78373;BME280;67656;52.074;4.758;2023-03-14T06:47:07;98994.28;;;6.11;100.00
78373;BME280;67656;52.074;4.758;2023-03-14T06:52:10;99013.53;;;6.10;100.00
78373;BME280;67656;52.074;4.758;2023-03-14T06:57:10;99023.94;;;6.12;100.00
78373;BME280;67656;52.074;4.758;2023-03-14T07:02:11;99037.34;;;6.04;100.00
78373;BME280;67656;52.074;4.758;2023-03-14T07:07:13;99056.59;;;6.03;100.00
78373;BME280;67656;52.074;4.758;2023-03-14T07:12:14;99086.28;;;6.02;100.00
78373;BME280;67656;52.074;4.758;2023-03-14T07:17:14;99100.28;;;6.01;100.00
78373;BME280;67656;52.074;4.758;2023-03-14T07:22:23;99114.63;;;5.91;100.00
78373;BME280;67656;52.074;4.758;2023-03-14T07:27:24;99146.09;;;5.64;100.00
78373;BME280;67656;52.074;4.758;2023-03-14T07:32:24;99154.28;;;5.54;100.00
78373;BME280;67656;52.074;4.758;2023-03-14T07:37:25;99181.75;;;5.68;100.00
78373;BME280;67656;52.074;4.758;2023-03-14T07:42:25;99202.44;;;5.74;100.00
78373;BME280;67656;52.074;4.758;2023-03-14T07:47:44;99223.72;;;5.65;100.00
78373;BME280;67656;52.074;4.758;2023-03-14T07:52:44;99257.56;;;5.44;100.00
78373;BME280;67656;52.074;4.758;2023-03-14T07:57:44;99277.34;;;5.25;100.00
78373;BME280;67656;52.074;4.758;2023-03-14T08:02:45;99291.97;;;5.02;100.00
78373;BME280;67656;52.074;4.758;2023-03-14T08:07:45;99329.03;;;4.86;100.00
78373;BME280;67656;52.074;4.758;2023-03-14T08:12:45;99348.22;;;4.85;100.00
78373;BME280;67656;52.074;4.758;2023-03-14T08:17:46;99357.50;;;4.66;100.00
78373;BME280;67656;52.074;4.758;2023-03-14T08:22:46;99388.94;;;4.63;100.00
78373;BME280;67656;52.074;4.758;2023-03-14T08:27:46;99408.94;;;4.65;100.00
78373;BME280;67656;52.074;4.758;2023-03-14T08:32:47;99439.50;;;4.93;100.00
78373;BME280;67656;52.074;4.758;2023-03-14T08:37:47;99460.53;;;4.90;100.00
78373;BME280;67656;52.074;4.758;2023-03-14T08:42:48;99485.09;;;4.83;100.00
78373;BME280;67656;52.074;4.758;2023-03-14T08:47:48;99506.78;;;4.86;100.00
78373;BME280;67656;52.074;4.758;2023-03-14T08:52:48;99517.03;;;4.96;100.00
78373;BME280;67656;52.074;4.758;2023-03-14T08:57:48;99536.03;;;5.02;100.00
78373;BME280;67656;52.074;4.758;2023-03-14T09:02:50;99553.06;;;5.17;100.00
78373;BME280;67656;52.074;4.758;2023-03-14T09:07:50;99560.72;;;5.25;100.00
78373;BME280;67656;52.074;4.758;2023-03-14T09:12:50;99587.81;;;5.56;100.00
78373;BME280;67656;52.074;4.758;2023-03-14T09:17:50;99600.97;;;5.52;100.00
78373;BME280;67656;52.074;4.758;2023-03-14T09:22:51;99610.38;;;5.27;100.00
78373;BME280;67656;52.074;4.758;2023-03-14T09:27:51;99636.56;;;5.25;100.00
78373;BME280;67656;52.074;4.758;2023-03-14T09:32:51;99666.75;;;5.38;100.00
78373;BME280;67656;52.074;4.758;2023-03-14T09:37:52;99707.69;;;5.05;100.00
78373;BME280;67656;52.074;4.758;2023-03-14T09:42:53;99722.13;;;4.41;100.00
78373;BME280;67656;52.074;4.758;2023-03-14T09:47:55;99764.50;;;4.12;100.00
78373;BME280;67656;52.074;4.758;2023-03-14T09:53:01;99760.59;;;3.88;100.00
78373;BME280;67656;52.074;4.758;2023-03-14T09:58:12;99766.41;;;4.04;100.00
78373;BME280;67656;52.074;4.758;2023-03-14T10:03:26;99774.91;;;4.59;100.00
78373;BME280;67656;52.074;4.758;2023-03-14T10:08:29;99806.38;;;4.97;100.00
78373;BME280;67656;52.074;4.758;2023-03-14T10:13:29;99821.16;;;5.37;100.00
78373;BME280;67656;52.074;4.758;2023-03-14T10:18:30;99831.09;;;5.21;100.00
78373;BME280;67656;52.074;4.758;2023-03-14T10:23:33;99860.59;;;4.87;100.00
78373;BME280;67656;52.074;4.758;2023-03-14T10:28:42;99876.78;;;4.60;100.00
78373;BME280;67656;52.074;4.758;2023-03-14T10:33:58;99901.03;;;4.69;100.00
78373;BME280;67656;52.074;4.758;2023-03-14T10:44:28;99936.91;;;5.48;100.00
78373;BME280;67656;52.074;4.758;2023-03-14T10:49:32;99944.38;;;5.67;100.00
78373;BME280;67656;52.074;4.758;2023-03-14T10:54:33;99954.84;;;5.67;100.00
78373;BME280;67656;52.074;4.758;2023-03-14T10:59:36;99971.69;;;5.53;100.00
78373;BME280;67656;52.074;4.758;2023-03-14T11:10:08;100008.78;;;5.74;100.00
78373;BME280;67656;52.074;4.758;2023-03-14T11:15:25;100035.00;;;6.15;100.00
78373;BME280;67656;52.074;4.758;2023-03-14T11:31:35;100084.41;;;7.04;100.00
78373;BME280;67656;52.074;4.758;2023-03-14T11:36:41;100105.97;;;7.16;100.00
78373;BME280;67656;52.074;4.758;2023-03-14T11:41:47;100115.50;;;7.20;100.00
78373;BME280;67656;52.074;4.758;2023-03-14T11:57:18;100160.19;;;6.81;100.00
78373;BME280;67656;52.074;4.758;2023-03-14T12:13:10;100190.47;;;6.94;100.00
78373;BME280;67656;52.074;4.758;2023-03-14T12:18:35;100200.34;;;6.83;100.00
78373;BME280;67656;52.074;4.758;2023-03-14T12:23:43;100211.69;;;6.83;100.00
78373;BME280;67656;52.074;4.758;2023-03-14T12:39:43;100229.16;;;6.84;100.00
78373;BME280;67656;52.074;4.758;2023-03-14T12:44:48;100246.78;;;6.78;100.00
78373;BME280;67656;52.074;4.758;2023-03-14T12:49:51;100264.56;;;6.21;100.00
78373;BME280;67656;52.074;4.758;2023-03-14T13:00:37;100300.78;;;6.45;100.00
78373;BME280;67656;52.074;4.758;2023-03-14T13:05:55;100295.31;;;6.56;96.97
78373;BME280;67656;52.074;4.758;2023-03-14T13:10:56;100320.03;;;6.44;95.90
78373;BME280;67656;52.074;4.758;2023-03-14T13:16:00;100330.59;;;6.40;99.91
78373;BME280;67656;52.074;4.758;2023-03-14T13:26:16;100359.28;;;6.48;100.00
78373;BME280;67656;52.074;4.758;2023-03-14T13:31:23;100367.72;;;6.64;100.00
78373;BME280;67656;52.074;4.758;2023-03-14T13:36:23;100395.00;;;7.40;100.00
78373;BME280;67656;52.074;4.758;2023-03-14T13:41:24;100409.69;;;7.07;94.18
78373;BME280;67656;52.074;4.758;2023-03-14T13:46:25;100410.94;;;6.42;93.53
78373;BME280;67656;52.074;4.758;2023-03-14T13:51:26;100423.22;;;6.37;89.42
78373;BME280;67656;52.074;4.758;2023-03-14T13:56:29;100428.59;;;6.31;92.42
78373;BME280;67656;52.074;4.758;2023-03-14T14:01:30;100438.34;;;6.23;96.67
78373;BME280;67656;52.074;4.758;2023-03-14T14:06:45;100468.97;;;6.21;100.00
78373;BME280;67656;52.074;4.758;2023-03-14T14:12:37;100467.31;;;6.13;100.00
78373;BME280;67656;52.074;4.758;2023-03-14T14:17:51;100471.06;;;5.94;100.00
78373;BME280;67656;52.074;4.758;2023-03-14T14:22:53;100490.34;;;5.90;94.66
78373;BME280;67656;52.074;4.758;2023-03-14T14:27:54;100506.75;;;6.04;97.15
78373;BME280;67656;52.074;4.758;2023-03-14T14:33:12;100511.25;;;5.93;100.00
78373;BME280;67656;52.074;4.758;2023-03-14T14:38:20;100542.88;;;5.77;100.00
78373;BME280;67656;52.074;4.758;2023-03-14T14:43:22;100541.06;;;5.86;100.00
78373;BME280;67656;52.074;4.758;2023-03-14T14:48:26;100547.81;;;6.02;100.00
78373;BME280;67656;52.074;4.758;2023-03-14T14:53:38;100564.22;;;6.17;100.00
78373;BME280;67656;52.074;4.758;2023-03-14T14:58:41;100565.28;;;6.03;93.15
78373;BME280;67656;52.074;4.758;2023-03-14T15:03:45;100587.09;;;6.05;95.98
78373;BME280;67656;52.074;4.758;2023-03-14T15:08:47;100607.16;;;6.06;100.00
78373;BME280;67656;52.074;4.758;2023-03-14T15:13:49;100608.03;;;6.05;100.00
78373;BME280;67656;52.074;4.758;2023-03-14T15:18:59;100630.13;;;5.82;99.79
78373;BME280;67656;52.074;4.758;2023-03-14T15:24:05;100637.88;;;5.89;100.00
78373;BME280;67656;52.074;4.758;2023-03-14T15:29:10;100639.47;;;6.05;100.00
78373;BME280;67656;52.074;4.758;2023-03-14T15:34:13;100642.13;;;5.99;100.00
78373;BME280;67656;52.074;4.758;2023-03-14T15:39:14;100640.19;;;6.17;100.00
78373;BME280;67656;52.074;4.758;2023-03-14T15:44:14;100660.63;;;5.88;100.00
78373;BME280;67656;52.074;4.758;2023-03-14T15:49:14;100682.16;;;6.13;100.00
78373;BME280;67656;52.074;4.758;2023-03-14T15:54:15;100693.34;;;6.29;100.00
78373;BME280;67656;52.074;4.758;2023-03-14T15:59:15;100693.59;;;6.08;95.99
78373;BME280;67656;52.074;4.758;2023-03-14T16:04:16;100695.72;;;5.70;98.39
78373;BME280;67656;52.074;4.758;2023-03-14T16:09:16;100716.69;;;5.67;100.00
78373;BME280;67656;52.074;4.758;2023-03-14T16:14:17;100718.63;;;5.48;100.00
78373;BME280;67656;52.074;4.758;2023-03-14T16:19:17;100730.91;;;5.40;100.00
78373;BME280;67656;52.074;4.758;2023-03-14T16:24:18;100735.34;;;5.30;100.00
78373;BME280;67656;52.074;4.758;2023-03-14T16:29:19;100739.81;;;5.15;100.00
78373;BME280;67656;52.074;4.758;2023-03-14T16:34:19;100752.81;;;5.28;100.00
78373;BME280;67656;52.074;4.758;2023-03-14T16:39:19;100752.03;;;5.13;100.00
78373;BME280;67656;52.074;4.758;2023-03-14T16:44:39;100770.34;;;5.13;100.00
78373;BME280;67656;52.074;4.758;2023-03-14T16:49:46;100773.97;;;4.94;100.00
78373;BME280;67656;52.074;4.758;2023-03-14T16:54:46;100776.56;;;4.92;100.00
78373;BME280;67656;52.074;4.758;2023-03-14T16:59:47;100798.41;;;4.86;100.00
78373;BME280;67656;52.074;4.758;2023-03-14T17:04:53;100808.00;;;4.86;100.00
78373;BME280;67656;52.074;4.758;2023-03-14T17:09:54;100807.94;;;4.98;100.00
78373;BME280;67656;52.074;4.758;2023-03-14T17:14:58;100820.16;;;4.98;100.00
78373;BME280;67656;52.074;4.758;2023-03-14T17:19:59;100833.25;;;4.95;100.00
78373;BME280;67656;52.074;4.758;2023-03-14T17:24:59;100835.03;;;4.80;100.00
78373;BME280;67656;52.074;4.758;2023-03-14T17:29:59;100833.38;;;4.60;100.00
78373;BME280;67656;52.074;4.758;2023-03-14T17:35:00;100850.00;;;4.33;100.00
78373;BME280;67656;52.074;4.758;2023-03-14T17:40:00;100857.88;;;4.13;100.00
78373;BME280;67656;52.074;4.758;2023-03-14T17:45:00;100883.16;;;3.95;100.00
78373;BME280;67656;52.074;4.758;2023-03-14T17:50:01;100890.97;;;3.67;100.00
78373;BME280;67656;52.074;4.758;2023-03-14T17:55:02;100903.97;;;3.57;100.00
78373;BME280;67656;52.074;4.758;2023-03-14T18:00:12;100910.00;;;3.35;100.00
78373;BME280;67656;52.074;4.758;2023-03-14T18:05:13;100907.31;;;3.06;100.00
78373;BME280;67656;52.074;4.758;2023-03-14T18:10:13;100920.31;;;2.98;100.00
78373;BME280;67656;52.074;4.758;2023-03-14T18:15:13;100922.91;;;2.92;100.00
78373;BME280;67656;52.074;4.758;2023-03-14T18:20:14;100919.38;;;2.84;100.00
78373;BME280;67656;52.074;4.758;2023-03-14T18:25:14;100930.53;;;2.58;100.00
78373;BME280;67656;52.074;4.758;2023-03-14T18:30:24;100923.59;;;2.58;100.00
78373;BME280;67656;52.074;4.758;2023-03-14T18:35:36;100935.59;;;2.33;100.00
78373;BME280;67656;52.074;4.758;2023-03-14T18:40:36;100938.97;;;2.20;100.00
78373;BME280;67656;52.074;4.758;2023-03-14T18:45:37;100946.56;;;1.96;100.00
78373;BME280;67656;52.074;4.758;2023-03-14T18:50:37;100956.19;;;2.05;100.00
78373;BME280;67656;52.074;4.758;2023-03-14T18:55:37;100965.00;;;2.20;100.00
78373;BME280;67656;52.074;4.758;2023-03-14T19:00:47;100959.72;;;2.13;100.00
78373;BME280;67656;52.074;4.758;2023-03-14T19:05:48;100964.78;;;1.96;100.00
78373;BME280;67656;52.074;4.758;2023-03-14T19:10:50;100961.38;;;2.05;100.00
78373;BME280;67656;52.074;4.758;2023-03-14T19:15:50;100962.31;;;2.15;100.00
78373;BME280;67656;52.074;4.758;2023-03-14T19:21:02;100958.03;;;2.19;100.00
78373;BME280;67656;52.074;4.758;2023-03-14T19:26:03;100941.59;;;2.24;100.00
78373;BME280;67656;52.074;4.758;2023-03-14T19:31:04;100949.44;;;2.29;100.00
78373;BME280;67656;52.074;4.758;2023-03-14T19:36:05;100933.03;;;2.42;100.00
78373;BME280;67656;52.074;4.758;2023-03-14T19:41:05;100954.06;;;2.72;100.00
78373;BME280;67656;52.074;4.758;2023-03-14T19:46:12;100958.53;;;2.93;100.00
78373;BME280;67656;52.074;4.758;2023-03-14T19:51:16;100983.00;;;3.20;100.00
78373;BME280;67656;52.074;4.758;2023-03-14T19:56:16;101006.34;;;2.97;100.00
78373;BME280;67656;52.074;4.758;2023-03-14T20:01:45;100994.94;;;2.78;100.00
78373;BME280;67656;52.074;4.758;2023-03-14T20:06:45;100989.75;;;2.81;100.00
78373;BME280;67656;52.074;4.758;2023-03-14T20:11:45;101008.91;;;2.90;100.00
78373;BME280;67656;52.074;4.758;2023-03-14T20:16:46;101021.09;;;2.96;100.00
78373;BME280;67656;52.074;4.758;2023-03-14T20:21:46;101034.88;;;2.70;100.00
78373;BME280;67656;52.074;4.758;2023-03-14T20:26:46;101023.94;;;2.14;100.00
78373;BME280;67656;52.074;4.758;2023-03-14T20:31:47;101039.38;;;1.96;100.00
78373;BME280;67656;52.074;4.758;2023-03-14T20:36:47;101056.06;;;2.15;100.00
78373;BME280;67656;52.074;4.758;2023-03-14T20:41:47;101062.25;;;2.25;100.00
78373;BME280;67656;52.074;4.758;2023-03-14T20:46:48;101057.97;;;2.32;100.00
78373;BME280;67656;52.074;4.758;2023-03-14T20:52:08;101065.91;;;2.44;100.00
78373;BME280;67656;52.074;4.758;2023-03-14T20:57:08;101055.66;;;2.64;100.00
78373;BME280;67656;52.074;4.758;2023-03-14T21:02:09;101044.34;;;2.62;100.00
78373;BME280;67656;52.074;4.758;2023-03-14T21:07:10;101050.41;;;2.61;100.00
78373;BME280;67656;52.074;4.758;2023-03-14T21:12:19;101039.34;;;2.88;100.00
78373;BME280;67656;52.074;4.758;2023-03-14T21:17:39;101051.38;;;2.75;100.00
78373;BME280;67656;52.074;4.758;2023-03-14T21:22:39;101066.13;;;2.73;100.00
78373;BME280;67656;52.074;4.758;2023-03-14T21:27:40;101062.63;;;2.71;100.00
78373;BME280;67656;52.074;4.758;2023-03-14T21:32:40;101061.81;;;2.75;100.00
78373;BME280;67656;52.074;4.758;2023-03-14T21:37:41;101074.06;;;2.83;100.00
78373;BME280;67656;52.074;4.758;2023-03-14T21:42:41;101077.59;;;2.97;100.00
78373;BME280;67656;52.074;4.758;2023-03-14T21:47:41;101126.44;;;3.17;100.00
78373;BME280;67656;52.074;4.758;2023-03-14T21:52:42;101137.16;;;2.51;100.00
78373;BME280;67656;52.074;4.758;2023-03-14T21:57:47;101178.06;;;1.86;100.00
78373;BME280;67656;52.074;4.758;2023-03-14T22:02:49;101177.44;;;1.39;100.00
78373;BME280;67656;52.074;4.758;2023-03-14T22:07:49;101184.28;;;0.80;100.00
78373;BME280;67656;52.074;4.758;2023-03-14T22:12:50;101169.25;;;0.64;100.00
78373;BME280;67656;52.074;4.758;2023-03-14T22:17:50;101172.69;;;0.63;100.00
78373;BME280;67656;52.074;4.758;2023-03-14T22:22:50;101168.50;;;0.69;100.00
78373;BME280;67656;52.074;4.758;2023-03-14T22:27:51;101171.09;;;0.71;100.00
78373;BME280;67656;52.074;4.758;2023-03-14T22:32:51;101176.53;;;0.83;100.00
78373;BME280;67656;52.074;4.758;2023-03-14T22:37:51;101183.66;;;0.94;100.00
78373;BME280;67656;52.074;4.758;2023-03-14T22:42:52;101190.69;;;1.01;100.00
78373;BME280;67656;52.074;4.758;2023-03-14T22:47:52;101198.63;;;1.10;100.00
78373;BME280;67656;52.074;4.758;2023-03-14T22:52:52;101225.56;;;1.14;100.00
78373;BME280;67656;52.074;4.758;2023-03-14T22:57:53;101221.16;;;1.10;100.00
78373;BME280;67656;52.074;4.758;2023-03-14T23:02:53;101226.94;;;0.95;100.00
78373;BME280;67656;52.074;4.758;2023-03-14T23:07:53;101231.00;;;0.79;100.00
78373;BME280;67656;52.074;4.758;2023-03-14T23:12:54;101219.59;;;0.69;100.00
78373;BME280;67656;52.074;4.758;2023-03-14T23:17:54;101227.69;;;0.87;100.00
78373;BME280;67656;52.074;4.758;2023-03-14T23:22:54;101235.88;;;1.09;100.00
78373;BME280;67656;52.074;4.758;2023-03-14T23:27:54;101215.84;;;1.03;100.00
78373;BME280;67656;52.074;4.758;2023-03-14T23:32:55;101215.72;;;0.96;100.00
78373;BME280;67656;52.074;4.758;2023-03-14T23:37:55;101209.41;;;0.81;100.00
78373;BME280;67656;52.074;4.758;2023-03-14T23:42:55;101212.63;;;0.68;100.00
78373;BME280;67656;52.074;4.758;2023-03-14T23:47:56;101212.44;;;0.58;100.00
78373;BME280;67656;52.074;4.758;2023-03-14T23:52:56;101207.09;;;0.49;100.00
78373;BME280;67656;52.074;4.758;2023-03-14T23:57:56;101214.16;;;0.56;100.00
